Time;durP1;ratioP1;P1;durP2;ratioP2;P2;SDS_P1;SDS_P2;PMS_P1;PMS_P2;Temp;Humidity;BMP_temperature;BMP_pressure;BME280_temperature;BME280_humidity;BME280_pressure;Samples;Min_cycle;Max_cycle;Signal;HPM_P1;HPM_P2
2023/12/03 00:02:07;;;;;;;10.63;4.43;;;;;;;;;;10456027;28;20353;-74
2023/12/03 00:07:08;;;;;;;8.85;4.55;;;;;;;;;;10432508;28;20314;-76
2023/12/03 00:12:09;;;;;;;5.10;4.47;;;;;;;;;;10430529;28;20360;-74
2023/12/03 00:17:11;;;;;;;4.60;4.05;;;;;;;;;;10430196;28;20352;-75
2023/12/03 00:22:12;;;;;;;7.30;4.47;;;;;;;;;;10432975;28;20254;-75
2023/12/03 00:27:13;;;;;;;11.80;6.30;;;;;;;;;;10428402;28;20234;-73
2023/12/03 00:32:14;;;;;;;10.75;5.93;;;;;;;;;;10410197;28;20219;-75
2023/12/03 00:37:14;;;;;;;8.20;5.18;;;;;;;;;;10410159;28;20732;-74
2023/12/03 00:42:15;;;;;;;10.50;4.95;;;;;;;;;;10426857;28;20225;-73
2023/12/03 00:47:17;;;;;;;8.30;5.30;;;;;;;;;;10409543;28;20229;-74
2023/12/03 00:52:18;;;;;;;10.17;6.13;;;;;;;;;;10423683;28;23094;-75
2023/12/03 00:57:18;;;;;;;13.48;5.80;;;;;;;;;;10427329;28;20222;-76
2023/12/03 01:02:19;;;;;;;12.98;5.65;;;;;;;;;;10430246;28;20257;-76
2023/12/03 01:07:20;;;;;;;9.13;5.67;;;;;;;;;;10432145;28;20227;-74
2023/12/03 01:12:22;;;;;;;9.20;5.27;;;;;;;;;;10429559;28;20688;-73
2023/12/03 01:17:23;;;;;;;10.43;5.40;;;;;;;;;;10413685;28;20710;-73
2023/12/03 01:22:24;;;;;;;10.00;5.20;;;;;;;;;;10424659;28;20298;-75
2023/12/03 01:27:25;;;;;;;8.93;4.87;;;;;;;;;;10409618;28;20254;-73
2023/12/03 01:32:26;;;;;;;9.13;4.80;;;;;;;;;;10399663;28;20222;-75
2023/12/03 01:37:27;;;;;;;10.53;5.27;;;;;;;;;;10426021;28;20202;-73
2023/12/03 01:42:28;;;;;;;9.57;5.63;;;;;;;;;;10428525;28;20221;-74
2023/12/03 01:47:29;;;;;;;14.13;5.43;;;;;;;;;;10416605;28;20226;-74
2023/12/03 01:52:30;;;;;;;8.57;5.50;;;;;;;;;;10421237;28;20284;-75
2023/12/03 01:57:31;;;;;;;13.97;6.23;;;;;;;;;;10429487;28;20234;-73
2023/12/03 02:02:32;;;;;;;13.45;5.40;;;;;;;;;;10425581;28;20684;-75
2023/12/03 02:07:33;;;;;;;13.40;5.83;;;;;;;;;;10425533;28;20215;-75
2023/12/03 02:12:34;;;;;;;13.40;6.75;;;;;;;;;;10461142;28;20301;-77
2023/12/03 02:17:35;;;;;;;11.27;5.53;;;;;;;;;;10416881;28;20214;-74
2023/12/03 02:22:58;;;;;;;10.93;5.65;;;;;;;;;;10424718;28;20277;-73
2023/12/03 02:27:59;;;;;;;8.75;5.10;;;;;;;;;;10426623;28;20317;-73
2023/12/03 02:33:00;;;;;;;10.67;5.67;;;;;;;;;;10424835;28;20214;-74
2023/12/03 02:38:01;;;;;;;10.93;5.90;;;;;;;;;;10439824;28;20306;-73
2023/12/03 02:43:02;;;;;;;16.27;6.90;;;;;;;;;;10434599;28;20591;-74
2023/12/03 02:48:04;;;;;;;10.48;5.05;;;;;;;;;;10430906;28;20293;-73
2023/12/03 02:53:05;;;;;;;10.38;5.95;;;;;;;;;;10394694;28;20208;-74
2023/12/03 02:58:06;;;;;;;9.67;5.57;;;;;;;;;;10420390;28;20218;-75
2023/12/03 03:03:07;;;;;;;11.67;5.90;;;;;;;;;;10429421;28;20775;-74
2023/12/03 03:08:08;;;;;;;10.40;5.22;;;;;;;;;;10431291;28;20222;-75
2023/12/03 03:13:09;;;;;;;10.60;6.10;;;;;;;;;;10430260;28;20214;-74
2023/12/03 03:18:10;;;;;;;12.60;5.87;;;;;;;;;;10398246;28;20562;-74
2023/12/03 03:23:11;;;;;;;8.43;5.00;;;;;;;;;;10424416;28;20748;-75
2023/12/03 03:28:12;;;;;;;13.77;5.63;;;;;;;;;;10433259;28;20799;-74
2023/12/03 03:33:13;;;;;;;9.70;5.00;;;;;;;;;;10427050;28;20221;-74
2023/12/03 03:38:14;;;;;;;9.02;5.10;;;;;;;;;;10403970;28;20215;-75
2023/12/03 03:43:15;;;;;;;8.88;4.60;;;;;;;;;;10392160;28;20607;-74
2023/12/03 03:48:16;;;;;;;11.65;5.60;;;;;;;;;;10410845;28;20930;-74
2023/12/03 03:53:17;;;;;;;7.22;4.82;;;;;;;;;;10430342;28;20260;-75
2023/12/03 03:58:18;;;;;;;9.63;4.65;;;;;;;;;;10429997;28;20214;-76
2023/12/03 04:03:19;;;;;;;10.90;4.85;;;;;;;;;;10415988;28;20253;-74
2023/12/03 04:08:20;;;;;;;12.27;5.88;;;;;;;;;;10413770;28;20268;-73
2023/12/03 04:13:21;;;;;;;13.83;5.70;;;;;;;;;;10422408;28;20222;-74
2023/12/03 04:18:22;;;;;;;10.13;5.55;;;;;;;;;;10427929;28;20206;-75
2023/12/03 04:23:23;;;;;;;14.95;5.95;;;;;;;;;;10432657;28;20703;-73
2023/12/03 04:28:24;;;;;;;10.75;4.78;;;;;;;;;;10431325;28;20216;-76
2023/12/03 04:33:25;;;;;;;11.57;5.57;;;;;;;;;;10426622;28;20206;-73
2023/12/03 04:38:26;;;;;;;12.88;6.63;;;;;;;;;;10427799;28;20708;-75
2023/12/03 04:43:27;;;;;;;13.60;6.47;;;;;;;;;;10434398;28;20218;-79
2023/12/03 04:48:28;;;;;;;9.60;5.45;;;;;;;;;;10429913;28;20916;-77
2023/12/03 04:53:29;;;;;;;14.48;6.13;;;;;;;;;;10402739;28;20211;-73
2023/12/03 04:58:31;;;;;;;13.00;5.75;;;;;;;;;;10385201;28;20318;-73
2023/12/03 05:03:32;;;;;;;15.05;6.35;;;;;;;;;;10418944;28;20221;-73
2023/12/03 05:08:33;;;;;;;15.32;6.93;;;;;;;;;;10409315;28;20305;-73
2023/12/03 05:13:34;;;;;;;15.23;6.53;;;;;;;;;;10421212;28;20205;-75
2023/12/03 05:18:35;;;;;;;12.23;6.50;;;;;;;;;;10428522;28;20223;-73
2023/12/03 05:23:36;;;;;;;12.80;7.00;;;;;;;;;;10410142;28;20211;-74
2023/12/03 05:28:37;;;;;;;19.23;8.57;;;;;;;;;;10410648;28;20246;-79
2023/12/03 05:33:38;;;;;;;14.57;6.40;;;;;;;;;;10398860;28;20303;-74
2023/12/03 05:38:39;;;;;;;12.77;7.07;;;;;;;;;;10411292;28;20215;-75
2023/12/03 05:43:40;;;;;;;14.18;6.50;;;;;;;;;;10390116;28;20292;-74
2023/12/03 05:48:42;;;;;;;15.63;6.85;;;;;;;;;;10372088;28;20283;-74
2023/12/03 05:53:43;;;;;;;14.63;7.33;;;;;;;;;;10402398;28;20206;-74
2023/12/03 05:58:44;;;;;;;10.90;5.45;;;;;;;;;;10390691;28;20214;-73
2023/12/03 06:03:45;;;;;;;16.87;7.20;;;;;;;;;;10416412;28;20254;-74
2023/12/03 06:08:46;;;;;;;15.47;7.10;;;;;;;;;;10417699;28;20305;-75
2023/12/03 06:13:47;;;;;;;15.20;6.20;;;;;;;;;;10421700;28;20524;-73
2023/12/03 06:18:48;;;;;;;18.55;7.65;;;;;;;;;;10389022;28;20222;-76
2023/12/03 06:23:50;;;;;;;18.33;7.65;;;;;;;;;;10398071;28;20978;-73
2023/12/03 06:28:51;;;;;;;18.25;6.80;;;;;;;;;;10403986;28;20662;-74
2023/12/03 06:33:52;;;;;;;20.33;6.93;;;;;;;;;;10389464;28;20217;-73
2023/12/03 06:38:53;;;;;;;13.77;7.22;;;;;;;;;;10410800;28;20225;-75
2023/12/03 06:43:54;;;;;;;15.95;6.13;;;;;;;;;;10416410;28;20214;-75
2023/12/03 06:48:55;;;;;;;13.73;6.75;;;;;;;;;;10392554;28;20203;-74
2023/12/03 06:53:56;;;;;;;15.53;5.47;;;;;;;;;;10383915;28;20204;-75
2023/12/03 06:58:58;;;;;;;11.73;6.28;;;;;;;;;;10386805;28;20927;-75
2023/12/03 07:03:59;;;;;;;13.73;6.60;;;;;;;;;;10401320;28;20719;-74
2023/12/03 07:09:00;;;;;;;13.43;6.78;;;;;;;;;;10412970;28;20245;-74
2023/12/03 07:14:01;;;;;;;13.95;7.15;;;;;;;;;;10409230;28;20214;-75
2023/12/03 07:19:02;;;;;;;13.40;6.53;;;;;;;;;;10417327;28;20214;-77
2023/12/03 07:24:03;;;;;;;13.93;7.00;;;;;;;;;;10425931;28;20215;-75
2023/12/03 07:29:04;;;;;;;21.42;9.30;;;;;;;;;;10413751;28;20219;-77
2023/12/03 07:34:05;;;;;;;21.70;9.68;;;;;;;;;;10399120;28;20211;-75
2023/12/03 07:39:07;;;;;;;17.27;8.15;;;;;;;;;;10397842;28;20207;-74
2023/12/03 07:44:08;;;;;;;18.35;8.25;;;;;;;;;;10419532;28;20249;-76
2023/12/03 07:49:09;;;;;;;19.45;7.72;;;;;;;;;;10418224;28;20802;-77
2023/12/03 07:54:10;;;;;;;15.85;7.03;;;;;;;;;;10420148;28;20248;-76
2023/12/03 07:59:12;;;;;;;19.35;7.57;;;;;;;;;;10377225;28;20215;-76
2023/12/03 08:04:13;;;;;;;12.90;6.72;;;;;;;;;;10415838;28;20226;-75
2023/12/03 08:09:14;;;;;;;14.57;6.95;;;;;;;;;;10386539;28;20219;-76
2023/12/03 08:14:15;;;;;;;20.13;7.75;;;;;;;;;;10402051;28;20210;-79
2023/12/03 08:19:16;;;;;;;21.05;8.98;;;;;;;;;;10390908;28;20701;-75
2023/12/03 08:24:17;;;;;;;16.52;7.90;;;;;;;;;;10386254;28;20999;-75
2023/12/03 08:29:18;;;;;;;14.30;6.65;;;;;;;;;;10373110;28;20872;-75
2023/12/03 08:34:20;;;;;;;12.80;7.28;;;;;;;;;;10405530;28;20489;-76
2023/12/03 08:39:21;;;;;;;19.02;8.18;;;;;;;;;;10420245;28;20214;-75
2023/12/03 08:44:22;;;;;;;19.65;8.00;;;;;;;;;;10383706;28;20223;-76
2023/12/03 08:49:23;;;;;;;19.42;8.02;;;;;;;;;;10381190;28;21883;-75
2023/12/03 08:54:24;;;;;;;19.45;7.53;;;;;;;;;;10378805;28;20304;-76
2023/12/03 08:59:25;;;;;;;13.30;7.27;;;;;;;;;;10370987;28;20211;-75
2023/12/03 09:04:26;;;;;;;18.17;7.68;;;;;;;;;;10405705;28;20237;-75
2023/12/03 09:09:27;;;;;;;25.55;8.85;;;;;;;;;;10398370;28;20577;-78
2023/12/03 09:14:28;;;;;;;18.80;8.13;;;;;;;;;;10423919;28;20309;-78
2023/12/03 09:19:29;;;;;;;18.73;9.88;;;;;;;;;;10410487;28;20314;-78
2023/12/03 09:24:31;;;;;;;17.33;7.72;;;;;;;;;;10415356;28;20258;-78
2023/12/03 09:29:32;;;;;;;22.27;8.43;;;;;;;;;;10411286;28;20294;-77
2023/12/03 09:34:33;;;;;;;24.40;9.25;;;;;;;;;;10426402;28;20281;-74
2023/12/03 09:39:34;;;;;;;22.80;9.32;;;;;;;;;;10420833;28;20214;-74
2023/12/03 09:44:40;;;;;;;15.35;7.82;;;;;;;;;;10382655;28;20241;-77
2023/12/03 09:49:42;;;;;;;20.00;8.02;;;;;;;;;;10420838;28;20215;-78
2023/12/03 09:54:45;;;;;;;21.05;8.07;;;;;;;;;;10397406;28;20827;-78
2023/12/03 09:59:47;;;;;;;17.30;7.70;;;;;;;;;;10401903;28;20216;-80
2023/12/03 10:04:48;;;;;;;16.02;8.40;;;;;;;;;;10381168;28;20377;-77
2023/12/03 10:09:50;;;;;;;20.08;8.63;;;;;;;;;;10415765;28;20659;-77
2023/12/03 10:14:51;;;;;;;21.95;8.77;;;;;;;;;;10404828;28;20246;-78
2023/12/03 10:19:53;;;;;;;20.60;7.75;;;;;;;;;;10413508;28;20215;-80
2023/12/03 10:24:54;;;;;;;18.50;7.97;;;;;;;;;;10397802;28;20212;-77
2023/12/03 10:29:55;;;;;;;18.98;7.80;;;;;;;;;;10421856;28;20215;-77
2023/12/03 10:34:57;;;;;;;21.55;8.45;;;;;;;;;;10422676;28;20223;-76
2023/12/03 10:39:58;;;;;;;18.42;9.02;;;;;;;;;;10421294;28;20223;-78
2023/12/03 10:45:07;;;;;;;16.30;8.10;;;;;;;;;;10415459;28;20749;-77
2023/12/03 10:50:08;;;;;;;18.55;7.30;;;;;;;;;;10403637;28;20353;-78
2023/12/03 10:55:09;;;;;;;15.80;7.53;;;;;;;;;;10392543;28;20280;-75
2023/12/03 11:00:12;;;;;;;17.10;7.55;;;;;;;;;;10347856;28;20688;-78
2023/12/03 11:05:23;;;;;;;18.52;8.98;;;;;;;;;;10362316;28;20218;-77
2023/12/03 11:10:24;;;;;;;20.50;8.57;;;;;;;;;;10385665;28;20610;-74
2023/12/03 11:15:26;;;;;;;17.50;8.80;;;;;;;;;;10407357;28;20590;-77
2023/12/03 11:20:29;;;;;;;21.63;9.73;;;;;;;;;;10371220;28;20223;-79
2023/12/03 11:25:33;;;;;;;22.15;8.20;;;;;;;;;;10371110;28;21003;-80
2023/12/03 11:30:39;;;;;;;21.40;8.70;;;;;;;;;;10359560;28;20253;-76
2023/12/03 11:35:42;;;;;;;18.83;9.52;;;;;;;;;;10425872;28;20224;-78
2023/12/03 11:40:43;;;;;;;22.75;9.35;;;;;;;;;;10398833;28;20567;-76
2023/12/03 11:45:44;;;;;;;20.90;10.13;;;;;;;;;;10400053;28;20216;-79
2023/12/03 11:50:46;;;;;;;24.42;9.43;;;;;;;;;;10359902;28;20291;-78
2023/12/03 11:55:49;;;;;;;21.60;10.27;;;;;;;;;;10350125;28;20215;-77
2023/12/03 12:00:50;;;;;;;18.33;8.88;;;;;;;;;;10415444;28;20219;-77
2023/12/03 12:05:52;;;;;;;24.38;9.93;;;;;;;;;;10385637;28;20295;-79
2023/12/03 12:10:53;;;;;;;25.00;10.65;;;;;;;;;;10432822;28;20215;-76
2023/12/03 12:15:55;;;;;;;19.88;9.65;;;;;;;;;;10428104;28;20233;-78
2023/12/03 12:21:10;;;;;;;25.27;10.02;;;;;;;;;;10404430;28;20282;-79
2023/12/03 12:26:11;;;;;;;22.98;10.85;;;;;;;;;;10396365;28;20269;-78
2023/12/03 12:31:13;;;;;;;21.40;10.35;;;;;;;;;;10368874;28;20223;-75
2023/12/03 12:36:15;;;;;;;22.25;10.93;;;;;;;;;;10416741;28;20220;-78
2023/12/03 12:41:19;;;;;;;18.95;9.68;;;;;;;;;;10417211;28;20224;-76
2023/12/03 12:46:20;;;;;;;21.90;10.20;;;;;;;;;;10404398;28;20223;-81
2023/12/03 12:51:22;;;;;;;18.52;9.98;;;;;;;;;;10383811;28;20225;-75
2023/12/03 12:56:23;;;;;;;20.67;10.15;;;;;;;;;;10433456;28;20884;-77
2023/12/03 13:01:25;;;;;;;24.65;11.98;;;;;;;;;;10437469;28;20230;-75
2023/12/03 13:06:27;;;;;;;19.85;9.38;;;;;;;;;;10401915;28;21983;-77
2023/12/03 13:11:28;;;;;;;20.58;10.07;;;;;;;;;;10395180;28;20214;-75
2023/12/03 13:16:29;;;;;;;23.13;10.27;;;;;;;;;;10388344;28;21451;-77
2023/12/03 13:21:29;;;;;;;19.60;9.65;;;;;;;;;;10387807;28;22495;-77
2023/12/03 13:26:31;;;;;;;20.02;10.15;;;;;;;;;;10401772;28;20218;-76
2023/12/03 13:31:32;;;;;;;20.50;10.60;;;;;;;;;;10398923;28;20222;-78
2023/12/03 13:36:33;;;;;;;29.00;10.93;;;;;;;;;;10419546;28;22316;-74
2023/12/03 13:41:34;;;;;;;21.20;9.93;;;;;;;;;;10411587;28;20218;-78
2023/12/03 13:46:35;;;;;;;27.23;11.93;;;;;;;;;;10437668;28;20237;-76
2023/12/03 13:51:36;;;;;;;33.65;14.57;;;;;;;;;;10429089;28;20223;-75
2023/12/03 13:56:37;;;;;;;23.33;10.77;;;;;;;;;;10426654;28;20756;-73
2023/12/03 14:01:38;;;;;;;20.92;8.63;;;;;;;;;;10393524;28;20853;-74
2023/12/03 14:06:39;;;;;;;18.42;9.45;;;;;;;;;;10387363;28;22073;-77
2023/12/03 14:11:40;;;;;;;17.58;9.20;;;;;;;;;;10406404;28;20224;-77
2023/12/03 14:16:51;;;;;;;24.00;10.55;;;;;;;;;;10390377;28;20218;-78
2023/12/03 14:21:53;;;;;;;23.02;9.48;;;;;;;;;;10367410;28;20307;-77
2023/12/03 14:26:54;;;;;;;19.38;9.10;;;;;;;;;;10368959;28;20230;-77
2023/12/03 14:31:55;;;;;;;25.10;11.27;;;;;;;;;;10404097;28;20699;-76
2023/12/03 14:36:56;;;;;;;22.17;10.05;;;;;;;;;;10404926;28;20310;-76
2023/12/03 14:41:57;;;;;;;18.27;9.15;;;;;;;;;;10387212;28;20222;-75
2023/12/03 14:46:58;;;;;;;19.50;9.20;;;;;;;;;;10353807;28;20219;-76
2023/12/03 14:51:59;;;;;;;20.58;9.57;;;;;;;;;;10334065;28;20243;-75
2023/12/03 14:57:00;;;;;;;18.73;8.75;;;;;;;;;;10327868;28;20208;-77
2023/12/03 15:02:01;;;;;;;18.55;9.98;;;;;;;;;;10363374;28;20223;-78
2023/12/03 15:07:02;;;;;;;21.55;11.60;;;;;;;;;;10344302;28;20277;-78
2023/12/03 15:12:03;;;;;;;24.33;12.70;;;;;;;;;;10329110;28;20227;-75
2023/12/03 15:17:04;;;;;;;19.95;10.57;;;;;;;;;;10376166;28;20681;-78
2023/12/03 15:22:05;;;;;;;24.38;12.73;;;;;;;;;;10364641;28;20261;-78
2023/12/03 15:27:06;;;;;;;22.25;12.02;;;;;;;;;;10359381;28;20227;-78
2023/12/03 15:32:07;;;;;;;24.27;12.50;;;;;;;;;;10343379;28;20207;-80
2023/12/03 15:37:09;;;;;;;18.95;10.65;;;;;;;;;;10385790;28;20211;-79
2023/12/03 15:42:10;;;;;;;28.73;12.40;;;;;;;;;;10392437;28;20218;-79
2023/12/03 15:47:11;;;;;;;23.58;10.95;;;;;;;;;;10389427;28;20230;-76
2023/12/03 15:52:12;;;;;;;22.98;9.98;;;;;;;;;;10387383;28;20207;-78
2023/12/03 15:57:13;;;;;;;22.73;11.40;;;;;;;;;;10357810;28;20207;-76
2023/12/03 16:02:14;;;;;;;26.15;10.45;;;;;;;;;;10317483;28;21540;-75
2023/12/03 16:07:16;;;;;;;21.77;10.07;;;;;;;;;;10329605;28;20227;-75
2023/12/03 16:12:17;;;;;;;25.08;10.57;;;;;;;;;;10382635;28;20250;-75
2023/12/03 16:17:18;;;;;;;20.70;10.98;;;;;;;;;;10391730;28;20221;-78
2023/12/03 16:22:19;;;;;;;26.27;11.85;;;;;;;;;;10399624;28;20588;-77
2023/12/03 16:27:20;;;;;;;23.90;12.50;;;;;;;;;;10413884;28;20228;-79
2023/12/03 16:32:21;;;;;;;27.15;11.30;;;;;;;;;;10395819;28;20634;-78
2023/12/03 16:37:22;;;;;;;26.77;11.93;;;;;;;;;;10381861;28;20237;-78
2023/12/03 16:42:23;;;;;;;26.58;11.27;;;;;;;;;;10403537;28;20233;-79
2023/12/03 16:47:25;;;;;;;29.02;13.40;;;;;;;;;;10361854;28;20223;-78
2023/12/03 16:52:26;;;;;;;31.35;12.77;;;;;;;;;;10375647;28;20218;-78
2023/12/03 16:57:27;;;;;;;26.60;12.48;;;;;;;;;;10403604;28;20210;-80
2023/12/03 17:02:28;;;;;;;24.85;11.15;;;;;;;;;;10367124;28;20868;-76
2023/12/03 17:07:29;;;;;;;26.85;11.65;;;;;;;;;;10417206;28;20223;-77
2023/12/03 17:12:31;;;;;;;25.48;10.75;;;;;;;;;;10409968;28;20234;-75
2023/12/03 17:17:32;;;;;;;23.75;10.65;;;;;;;;;;10394289;28;20344;-76
2023/12/03 17:22:34;;;;;;;22.58;11.00;;;;;;;;;;10378969;28;20614;-77
2023/12/03 17:27:35;;;;;;;30.55;12.50;;;;;;;;;;10375900;28;20364;-76
2023/12/03 17:32:37;;;;;;;24.57;12.27;;;;;;;;;;10362854;28;20222;-75
2023/12/03 17:37:38;;;;;;;21.83;11.10;;;;;;;;;;10379080;28;20203;-75
2023/12/03 17:42:40;;;;;;;26.05;10.77;;;;;;;;;;10392302;28;20790;-77
2023/12/03 17:47:42;;;;;;;20.83;11.10;;;;;;;;;;10394966;28;20226;-76
2023/12/03 17:52:43;;;;;;;26.50;12.63;;;;;;;;;;10375261;28;20257;-74
2023/12/03 17:57:44;;;;;;;17.83;10.35;;;;;;;;;;10391699;28;20301;-74
2023/12/03 18:02:45;;;;;;;27.33;12.50;;;;;;;;;;10386525;28;20299;-77
2023/12/03 18:07:46;;;;;;;27.50;13.50;;;;;;;;;;10401347;28;20289;-78
2023/12/03 18:12:47;;;;;;;26.20;11.77;;;;;;;;;;10375539;28;20223;-79
2023/12/03 18:17:48;;;;;;;34.38;12.32;;;;;;;;;;10388768;28;20211;-77
2023/12/03 18:22:49;;;;;;;26.48;12.65;;;;;;;;;;10374985;28;20218;-74
2023/12/03 18:27:50;;;;;;;29.30;12.57;;;;;;;;;;10413581;28;20678;-73
2023/12/03 18:32:51;;;;;;;29.58;12.02;;;;;;;;;;10369171;28;20788;-76
2023/12/03 18:37:52;;;;;;;28.38;13.20;;;;;;;;;;10393994;28;20226;-74
2023/12/03 18:42:53;;;;;;;26.65;13.10;;;;;;;;;;10408908;28;20220;-77
2023/12/03 18:47:54;;;;;;;25.40;13.23;;;;;;;;;;10419386;28;20233;-75
2023/12/03 18:52:56;;;;;;;37.03;13.82;;;;;;;;;;10416812;28;20250;-75
2023/12/03 18:57:57;;;;;;;29.55;13.27;;;;;;;;;;10421237;28;20305;-76
2023/12/03 19:02:58;;;;;;;32.85;15.10;;;;;;;;;;10368709;28;20272;-76
2023/12/03 19:07:59;;;;;;;29.02;12.77;;;;;;;;;;10375961;28;20211;-77
2023/12/03 19:13:00;;;;;;;25.73;10.50;;;;;;;;;;10324462;28;24722;-78
2023/12/03 19:18:01;;;;;;;26.05;12.05;;;;;;;;;;10367120;28;20307;-79
2023/12/03 19:23:02;;;;;;;27.13;11.73;;;;;;;;;;10399777;28;20470;-76
2023/12/03 19:28:04;;;;;;;26.30;11.83;;;;;;;;;;10381580;28;20239;-77
2023/12/03 19:33:06;;;;;;;25.83;12.02;;;;;;;;;;10374697;28;21805;-76
2023/12/03 19:38:08;;;;;;;20.73;10.57;;;;;;;;;;10397491;28;20215;-76
2023/12/03 19:43:09;;;;;;;21.45;10.60;;;;;;;;;;10385951;28;20213;-76
2023/12/03 19:48:10;;;;;;;26.58;13.40;;;;;;;;;;10337762;28;20226;-72
2023/12/03 19:53:11;;;;;;;21.58;10.88;;;;;;;;;;10373120;28;20217;-74
2023/12/03 19:58:16;;;;;;;22.65;11.57;;;;;;;;;;10357570;28;20219;-75
2023/12/03 20:03:17;;;;;;;27.88;13.10;;;;;;;;;;10359190;28;20230;-74
2023/12/03 20:08:18;;;;;;;24.52;11.70;;;;;;;;;;10376671;28;20311;-74
2023/12/03 20:13:19;;;;;;;25.05;12.73;;;;;;;;;;10376778;28;20998;-73
2023/12/03 20:18:20;;;;;;;21.83;10.63;;;;;;;;;;10355683;28;20211;-75
2023/12/03 20:23:21;;;;;;;20.45;10.70;;;;;;;;;;10373579;28;20224;-75
2023/12/03 20:28:22;;;;;;;22.95;10.75;;;;;;;;;;10383987;28;20612;-74
2023/12/03 20:33:23;;;;;;;20.73;10.63;;;;;;;;;;10314890;28;20208;-74
2023/12/03 20:38:25;;;;;;;25.10;11.40;;;;;;;;;;10336413;28;20218;-75
2023/12/03 20:43:26;;;;;;;31.90;12.85;;;;;;;;;;10394378;28;20211;-74
2023/12/03 20:48:27;;;;;;;24.97;11.83;;;;;;;;;;10417282;28;20329;-75
2023/12/03 20:53:28;;;;;;;15.93;8.73;;;;;;;;;;10390607;28;20218;-75
2023/12/03 20:58:32;;;;;;;18.47;9.97;;;;;;;;;;10383207;28;20237;-75
2023/12/03 21:03:33;;;;;;;22.60;10.03;;;;;;;;;;10392040;28;20720;-75
2023/12/03 21:08:34;;;;;;;15.37;9.17;;;;;;;;;;10372892;28;20214;-75
2023/12/03 21:13:36;;;;;;;15.87;8.53;;;;;;;;;;10379692;28;21486;-74
2023/12/03 21:18:37;;;;;;;16.10;8.67;;;;;;;;;;10374057;28;20657;-75
2023/12/03 21:23:39;;;;;;;15.47;8.17;;;;;;;;;;10352272;28;20713;-76
2023/12/03 21:28:40;;;;;;;25.03;9.27;;;;;;;;;;10345128;28;20219;-74
2023/12/03 21:33:41;;;;;;;15.70;7.47;;;;;;;;;;10371849;28;20237;-77
2023/12/03 21:38:42;;;;;;;19.93;8.17;;;;;;;;;;10424247;28;20277;-77
2023/12/03 21:43:43;;;;;;;20.40;9.93;;;;;;;;;;10433815;28;20297;-76
2023/12/03 21:48:44;;;;;;;19.37;8.37;;;;;;;;;;10400414;28;20230;-77
2023/12/03 21:53:45;;;;;;;17.97;8.27;;;;;;;;;;10401603;28;20229;-76
2023/12/03 21:58:46;;;;;;;15.37;7.53;;;;;;;;;;10414013;28;20214;-75
2023/12/03 22:03:47;;;;;;;17.73;8.10;;;;;;;;;;10379831;28;20226;-75
2023/12/03 22:08:48;;;;;;;17.67;8.83;;;;;;;;;;10373799;28;20264;-73
2023/12/03 22:13:49;;;;;;;24.40;9.30;;;;;;;;;;10373222;28;20338;-76
2023/12/03 22:18:50;;;;;;;19.80;8.13;;;;;;;;;;10356461;28;20809;-74
2023/12/03 22:23:51;;;;;;;22.77;8.97;;;;;;;;;;10422561;28;20685;-75
2023/12/03 22:28:52;;;;;;;16.77;8.73;;;;;;;;;;10356440;28;20231;-75
2023/12/03 22:33:53;;;;;;;18.87;9.83;;;;;;;;;;10373855;28;20298;-76
2023/12/03 22:38:54;;;;;;;18.17;8.80;;;;;;;;;;10404963;28;20214;-74
2023/12/03 22:43:55;;;;;;;17.10;9.07;;;;;;;;;;10406318;28;20219;-74
2023/12/03 22:48:56;;;;;;;22.33;10.23;;;;;;;;;;10355847;28;20759;-74
2023/12/03 22:53:59;;;;;;;19.80;9.43;;;;;;;;;;10391172;28;20302;-73
2023/12/03 22:59:00;;;;;;;22.70;8.53;;;;;;;;;;10415705;28;20214;-74
2023/12/03 23:04:01;;;;;;;20.57;8.50;;;;;;;;;;10396976;28;20325;-74
2023/12/03 23:09:02;;;;;;;15.43;7.30;;;;;;;;;;10400508;28;20225;-75
2023/12/03 23:14:03;;;;;;;20.57;8.57;;;;;;;;;;10406526;28;20202;-75
2023/12/03 23:19:04;;;;;;;12.17;6.40;;;;;;;;;;10406367;28;20207;-76
2023/12/03 23:24:06;;;;;;;20.07;8.23;;;;;;;;;;10392899;28;20214;-75
2023/12/03 23:29:08;;;;;;;13.57;6.60;;;;;;;;;;10387508;28;20233;-74
2023/12/03 23:34:09;;;;;;;15.57;7.20;;;;;;;;;;10378087;28;20210;-76
2023/12/03 23:39:10;;;;;;;10.97;5.90;;;;;;;;;;10367930;28;20578;-75
2023/12/03 23:44:11;;;;;;;16.80;7.13;;;;;;;;;;10398609;28;20223;-76
2023/12/03 23:49:12;;;;;;;12.50;6.77;;;;;;;;;;10411230;28;20215;-76
2023/12/03 23:54:13;;;;;;;16.27;7.10;;;;;;;;;;10380318;28;20207;-78
2023/12/03 23:59:16;;;;;;;12.37;7.17;;;;;;;;;;10367028;28;20216;-76
